Time;durP1;ratioP1;P1;durP2;ratioP2;P2;SDS_P1;SDS_P2;PMS_P1;PMS_P2;Temp;Humidity;BMP_temperature;BMP_pressure;BME280_temperature;BME280_humidity;BME280_pressure;Samples;Min_cycle;Max_cycle;Signal;HPM_P1;HPM_P2
2022/03/13 00:00:41;;;;;;;19.30;11.05;;;;;;;10.73;74.25;101471.22;5031843;28;20059;-54
2022/03/13 00:03:12;;;;;;;18.77;10.50;;;;;;;10.69;73.40;101475.16;5032150;28;20478;-54
2022/03/13 00:05:41;;;;;;;17.90;11.07;;;;;;;10.67;74.26;101484.31;5036495;28;20111;-55
2022/03/13 00:08:16;;;;;;;19.13;10.90;;;;;;;10.61;73.80;101483.06;5033745;28;20044;-54
2022/03/13 00:10:44;;;;;;;16.95;10.30;;;;;;;10.58;74.37;101481.53;5043996;28;20024;-53
2022/03/13 00:13:16;;;;;;;17.45;10.27;;;;;;;10.61;74.79;101481.22;5049587;28;20024;-54
2022/03/13 00:15:42;;;;;;;19.05;10.38;;;;;;;10.59;74.28;101477.88;5051193;28;20099;-53
2022/03/13 00:18:11;;;;;;;18.70;10.10;;;;;;;10.60;74.85;101476.03;5043288;28;20225;-54
2022/03/13 00:20:37;;;;;;;18.27;10.65;;;;;;;10.56;74.63;101480.00;5047552;28;20544;-54
2022/03/13 00:23:02;;;;;;;15.80;9.23;;;;;;;10.54;74.91;101479.28;5036291;28;20059;-55
2022/03/13 00:25:28;;;;;;;14.88;9.13;;;;;;;10.53;75.94;101469.59;5034661;28;20629;-54
2022/03/13 00:27:53;;;;;;;13.70;8.20;;;;;;;10.52;76.49;101473.25;5036801;28;20452;-55
2022/03/13 00:30:19;;;;;;;16.80;8.50;;;;;;;10.50;76.07;101468.03;5035977;28;20078;-55
2022/03/13 00:32:45;;;;;;;14.30;9.07;;;;;;;10.50;76.20;101473.38;5053241;28;20036;-54
2022/03/13 00:35:13;;;;;;;15.40;9.05;;;;;;;10.50;76.49;101467.22;5054489;28;20032;-54
2022/03/13 00:37:38;;;;;;;14.13;8.50;;;;;;;10.46;77.05;101464.00;5046340;28;20348;-54
2022/03/13 00:40:05;;;;;;;26.27;9.43;;;;;;;10.45;77.20;101467.63;5064665;28;20077;-54
2022/03/13 00:42:30;;;;;;;13.98;8.63;;;;;;;10.48;77.54;101458.50;5074678;28;20539;-54
2022/03/13 00:44:56;;;;;;;13.90;8.70;;;;;;;10.48;76.14;101451.34;5076042;28;20117;-54
2022/03/13 00:47:21;;;;;;;19.85;9.23;;;;;;;10.48;77.56;101448.66;5062152;28;20039;-54
2022/03/13 00:49:48;;;;;;;15.25;9.43;;;;;;;10.46;77.28;101442.63;5058921;28;20514;-54
2022/03/13 00:52:13;;;;;;;14.48;9.15;;;;;;;10.45;76.89;101440.94;5076247;28;20111;-54
2022/03/13 00:54:39;;;;;;;13.68;8.75;;;;;;;10.42;77.12;101439.41;5055181;28;20499;-54
2022/03/13 00:57:04;;;;;;;18.42;9.30;;;;;;;10.43;77.72;101445.59;5052847;28;20305;-54
2022/03/13 00:59:29;;;;;;;16.73;9.27;;;;;;;10.42;77.64;101436.75;5054015;28;20020;-54
2022/03/13 01:01:55;;;;;;;15.25;9.43;;;;;;;10.39;76.85;101438.88;5066236;28;20586;-54
2022/03/13 01:04:20;;;;;;;17.40;10.07;;;;;;;10.34;76.25;101431.28;5075830;28;20282;-54
2022/03/13 01:06:46;;;;;;;18.80;10.63;;;;;;;10.30;76.29;101437.00;5067217;28;20419;-55
2022/03/13 01:09:12;;;;;;;16.15;10.20;;;;;;;10.26;77.13;101428.47;5070873;28;20032;-54
2022/03/13 01:11:37;;;;;;;20.33;10.40;;;;;;;10.20;77.21;101429.03;5056362;28;20393;-53
2022/03/13 01:14:02;;;;;;;19.65;10.60;;;;;;;10.18;77.85;101431.88;5054653;28;20059;-55
2022/03/13 01:16:34;;;;;;;17.75;10.10;;;;;;;10.15;77.69;101425.94;5065243;28;20181;-55
2022/03/13 01:18:59;;;;;;;16.55;9.93;;;;;;;10.13;78.71;101423.41;5064222;28;20118;-54
2022/03/13 01:21:32;;;;;;;17.75;10.75;;;;;;;10.11;79.26;101425.41;5056640;28;20104;-55
2022/03/13 01:24:01;;;;;;;15.15;10.20;;;;;;;10.06;80.20;101417.84;5064822;28;20249;-54
2022/03/13 01:26:26;;;;;;;18.23;10.05;;;;;;;10.01;80.10;101416.56;5062399;28;20111;-55
2022/03/13 01:28:53;;;;;;;17.45;10.60;;;;;;;9.94;80.45;101410.13;5053953;28;20475;-55
2022/03/13 01:31:21;;;;;;;17.38;10.27;;;;;;;9.91;80.60;101405.91;5054453;28;20029;-55
2022/03/13 01:33:47;;;;;;;19.02;10.13;;;;;;;9.85;81.66;101409.16;5055321;28;20063;-56
2022/03/13 01:36:13;;;;;;;18.13;10.15;;;;;;;9.78;80.63;101408.88;5055892;28;20309;-54
2022/03/13 01:38:38;;;;;;;18.08;10.75;;;;;;;9.71;80.96;101397.09;5047134;28;20056;-56
2022/03/13 01:41:04;;;;;;;19.17;10.75;;;;;;;9.70;81.34;101395.41;5036299;28;20039;-55
2022/03/13 01:43:31;;;;;;;19.67;10.18;;;;;;;9.67;81.82;101396.56;5022752;28;20329;-55
2022/03/13 01:45:58;;;;;;;16.80;10.70;;;;;;;9.62;81.17;101387.28;5022627;28;20112;-55
2022/03/13 01:48:24;;;;;;;19.55;10.65;;;;;;;9.55;81.84;101389.66;5041002;28;20368;-55
2022/03/13 01:50:50;;;;;;;18.48;10.60;;;;;;;9.52;81.60;101379.28;5043347;28;20340;-54
2022/03/13 01:53:15;;;;;;;16.35;10.13;;;;;;;9.51;82.94;101380.28;5042297;28;20032;-54
2022/03/13 01:55:41;;;;;;;15.95;10.25;;;;;;;9.49;84.05;101372.41;5053286;28;20043;-55
2022/03/13 01:58:06;;;;;;;17.35;10.00;;;;;;;9.46;83.29;101378.03;5054445;28;20119;-54
2022/03/13 02:00:32;;;;;;;17.15;10.15;;;;;;;9.42;83.90;101370.44;5054362;28;20029;-54
2022/03/13 02:02:58;;;;;;;19.05;9.88;;;;;;;9.38;84.35;101372.53;5053758;28;20024;-55
2022/03/13 02:05:30;;;;;;;17.38;9.90;;;;;;;9.36;84.39;101360.34;5055348;28;20032;-53
2022/03/13 02:07:56;;;;;;;15.85;10.25;;;;;;;9.32;83.93;101371.28;5055532;28;20504;-54
2022/03/13 02:10:21;;;;;;;17.27;9.65;;;;;;;9.30;84.26;101369.72;5053337;28;20048;-53
2022/03/13 02:12:47;;;;;;;15.57;9.27;;;;;;;9.30;85.09;101361.72;5032954;28;20662;-54
2022/03/13 02:15:12;;;;;;;15.27;9.45;;;;;;;9.23;84.17;101352.63;5042486;28;20025;-54
2022/03/13 02:17:37;;;;;;;14.80;9.30;;;;;;;9.24;84.44;101360.47;5034468;28;20369;-55
2022/03/13 02:20:03;;;;;;;17.17;9.20;;;;;;;9.24;85.41;101359.66;5035871;28;20032;-54
2022/03/13 02:22:30;;;;;;;17.75;9.13;;;;;;;9.20;85.08;101367.09;5050717;28;20122;-56
2022/03/13 02:24:55;;;;;;;15.13;9.02;;;;;;;9.20;85.09;101363.56;5031898;28;20139;-54
2022/03/13 02:27:25;;;;;;;15.85;8.85;;;;;;;9.24;86.19;101362.31;5047895;28;20055;-53
2022/03/13 02:29:50;;;;;;;17.38;9.30;;;;;;;9.23;85.27;101364.16;5054313;28;20235;-53
2022/03/13 02:32:18;;;;;;;13.43;8.65;;;;;;;9.26;85.21;101363.84;5053773;28;20039;-54
2022/03/13 02:34:44;;;;;;;14.88;8.80;;;;;;;9.30;85.78;101369.72;5049129;28;20081;-54
2022/03/13 02:37:34;;;;;;;15.77;9.68;;;;;;;9.31;85.84;101368.75;5034202;28;20052;-55
2022/03/13 02:40:00;;;;;;;18.02;9.05;;;;;;;9.31;86.17;101366.94;5048034;28;20039;-55
2022/03/13 02:42:25;;;;;;;19.42;9.38;;;;;;;9.28;85.48;101375.22;5053923;28;20378;-55
2022/03/13 02:44:50;;;;;;;15.93;9.70;;;;;;;9.26;86.21;101366.50;5053320;28;20031;-55
2022/03/13 02:47:16;;;;;;;15.27;10.05;;;;;;;9.24;86.72;101368.47;5048589;28;20024;-56
2022/03/13 02:49:41;;;;;;;17.52;9.88;;;;;;;9.20;86.64;101364.41;5047217;28;20028;-53
2022/03/13 02:52:06;;;;;;;13.77;9.63;;;;;;;9.20;86.09;101355.56;5046516;28;20051;-54
2022/03/13 02:54:32;;;;;;;19.08;10.32;;;;;;;9.22;87.17;101357.13;5043988;28;20033;-55
2022/03/13 02:56:58;;;;;;;20.73;10.70;;;;;;;9.21;87.54;101352.75;5048185;28;20025;-55
2022/03/13 02:59:24;;;;;;;16.60;10.48;;;;;;;9.16;87.04;101344.34;5038525;28;20044;-54
2022/03/13 03:01:49;;;;;;;17.00;10.60;;;;;;;9.13;87.87;101345.47;5052670;28;20020;-55
2022/03/13 03:04:16;;;;;;;17.38;10.95;;;;;;;9.12;86.87;101353.59;5040434;28;20550;-54
2022/03/13 03:06:55;;;;;;;18.27;11.48;;;;;;;9.10;86.96;101353.75;5033049;28;20410;-55
2022/03/13 03:09:21;;;;;;;17.95;11.00;;;;;;;9.09;87.75;101354.72;5051395;28;20157;-55
2022/03/13 03:11:47;;;;;;;21.85;11.35;;;;;;;9.07;87.83;101348.69;5053335;28;20031;-53
2022/03/13 03:14:12;;;;;;;19.02;11.38;;;;;;;9.05;86.84;101350.66;5053402;28;20383;-54
2022/03/13 03:16:37;;;;;;;21.50;11.27;;;;;;;9.05;87.16;101348.00;5052894;28;20502;-55
2022/03/13 03:19:03;;;;;;;21.10;11.93;;;;;;;9.06;87.08;101346.16;5051444;28;20483;-53
2022/03/13 03:21:28;;;;;;;19.60;11.85;;;;;;;9.07;88.63;101348.69;5039518;28;20093;-54
2022/03/13 03:23:53;;;;;;;22.00;12.23;;;;;;;9.09;89.48;101348.56;5042754;28;20028;-52
2022/03/13 03:26:19;;;;;;;20.95;12.85;;;;;;;9.11;89.89;101331.47;5052225;28;20048;-53
2022/03/13 03:28:45;;;;;;;20.13;12.82;;;;;;;9.14;88.48;101335.66;5052279;28;20135;-55
2022/03/13 03:31:10;;;;;;;21.63;13.15;;;;;;;9.17;90.08;101335.38;5033634;28;20063;-54
2022/03/13 03:33:35;;;;;;;28.35;13.18;;;;;;;9.14;89.98;101340.97;5032259;28;20071;-55
2022/03/13 03:36:01;;;;;;;20.15;12.80;;;;;;;9.11;91.49;101339.44;5032200;28;20114;-55
2022/03/13 03:38:26;;;;;;;22.77;13.45;;;;;;;9.12;93.29;101340.28;5033848;28;20055;-53
2022/03/13 03:40:51;;;;;;;22.70;13.50;;;;;;;9.10;91.79;101335.09;5031048;28;20025;-53
2022/03/13 03:43:17;;;;;;;28.55;14.13;;;;;;;9.12;93.99;101338.44;5032200;28;20131;-54
2022/03/13 03:45:42;;;;;;;23.45;14.73;;;;;;;9.09;91.53;101338.72;5033397;28;20421;-56
2022/03/13 03:48:07;;;;;;;29.27;14.15;;;;;;;9.06;93.36;101335.50;5033291;28;20028;-54
2022/03/13 03:50:33;;;;;;;22.40;13.98;;;;;;;9.07;94.35;101338.03;5034245;28;20035;-53
2022/03/13 03:52:58;;;;;;;24.05;14.48;;;;;;;9.09;94.76;101336.06;5048429;28;20043;-55
2022/03/13 03:55:25;;;;;;;28.33;15.07;;;;;;;9.08;95.12;101330.88;5056421;28;20036;-55
2022/03/13 03:57:52;;;;;;;28.60;15.35;;;;;;;9.06;96.04;101333.69;5039883;28;20360;-54
2022/03/13 04:00:18;;;;;;;23.98;14.43;;;;;;;9.04;94.94;101334.81;5037192;28;20252;-56
2022/03/13 04:02:43;;;;;;;26.05;15.27;;;;;;;9.05;94.21;101339.16;5039708;28;20286;-55
2022/03/13 04:05:10;;;;;;;25.88;15.15;;;;;;;9.06;95.84;101331.03;5054960;28;20156;-55
2022/03/13 04:07:36;;;;;;;28.30;15.27;;;;;;;9.08;96.80;101330.88;5056165;28;20080;-53
2022/03/13 04:10:03;;;;;;;25.67;14.60;;;;;;;9.08;97.62;101336.19;5039755;28;20029;-54
2022/03/13 04:12:29;;;;;;;28.88;15.30;;;;;;;9.06;95.41;101322.19;5035997;28;20588;-54
2022/03/13 04:14:54;;;;;;;26.80;14.98;;;;;;;9.06;94.26;101322.19;5037418;28;20108;-53
2022/03/13 04:17:19;;;;;;;25.20;15.43;;;;;;;9.08;96.66;101322.88;5045861;28;20569;-53
2022/03/13 04:19:45;;;;;;;21.63;14.13;;;;;;;9.04;93.08;101322.31;5056358;28;20087;-54
2022/03/13 04:22:11;;;;;;;24.20;15.20;;;;;;;9.05;95.18;101321.34;5056234;28;20029;-54
2022/03/13 04:24:36;;;;;;;25.80;15.55;;;;;;;9.06;95.67;101324.84;5049969;28;20032;-54
2022/03/13 04:27:02;;;;;;;24.92;15.35;;;;;;;9.04;94.97;101327.66;5044197;28;20382;-55
2022/03/13 04:29:27;;;;;;;29.08;16.50;;;;;;;9.03;95.08;101322.44;5027723;28;20090;-54
2022/03/13 04:31:55;;;;;;;27.30;16.35;;;;;;;9.06;95.87;101322.19;5037055;28;20090;-55
2022/03/13 04:34:21;;;;;;;28.00;16.33;;;;;;;9.04;95.52;101326.81;5038928;28;20713;-54
2022/03/13 04:36:47;;;;;;;30.30;16.42;;;;;;;9.01;94.89;101325.25;5056470;28;20090;-55
2022/03/13 04:39:13;;;;;;;31.55;18.45;;;;;;;9.04;95.65;101332.13;5036466;28;20028;-55
2022/03/13 04:41:39;;;;;;;33.03;18.75;;;;;;;9.01;93.89;101332.41;5030584;28;20025;-53
2022/03/13 04:44:06;;;;;;;33.63;20.38;;;;;;;9.02;95.67;101331.44;5035474;28;20434;-54
2022/03/13 04:46:32;;;;;;;33.17;19.55;;;;;;;8.99;96.36;101327.22;5035952;28;20468;-55
2022/03/13 04:48:57;;;;;;;35.53;20.45;;;;;;;8.99;95.43;101337.03;5035604;28;20025;-54
2022/03/13 04:51:23;;;;;;;39.67;22.02;;;;;;;8.98;96.29;101340.69;5021695;28;20024;-54
2022/03/13 04:53:49;;;;;;;39.28;22.67;;;;;;;8.92;96.58;101323.44;5047928;28;20043;-55
2022/03/13 04:56:14;;;;;;;37.95;22.42;;;;;;;8.89;96.55;101327.22;5045309;28;20382;-54
2022/03/13 04:58:39;;;;;;;36.55;22.13;;;;;;;8.87;97.69;101323.00;5034234;28;20571;-55
2022/03/13 05:01:05;;;;;;;37.10;22.25;;;;;;;8.83;98.03;101329.59;5035469;28;20056;-56
2022/03/13 05:03:32;;;;;;;35.55;21.67;;;;;;;8.78;98.78;101330.84;5043240;28;20503;-54
2022/03/13 05:05:57;;;;;;;35.97;21.50;;;;;;;8.76;99.59;101327.47;5051053;28;20033;-54
2022/03/13 05:08:23;;;;;;;33.53;19.67;;;;;;;8.72;97.18;101325.22;5056611;28;20461;-54
2022/03/13 05:10:50;;;;;;;32.78;19.48;;;;;;;8.67;99.07;101316.81;5038034;28;20027;-54
2022/03/13 05:13:17;;;;;;;30.45;18.05;;;;;;;8.61;98.87;101315.53;5035229;28;20477;-55
2022/03/13 05:15:43;;;;;;;32.53;17.20;;;;;;;8.58;98.90;101313.13;5039455;28;20100;-54
2022/03/13 05:18:09;;;;;;;31.42;18.27;;;;;;;8.57;99.00;101306.97;5055696;28;20024;-55
2022/03/13 05:20:35;;;;;;;28.90;17.63;;;;;;;8.53;98.88;101305.56;5054950;28;20035;-54
2022/03/13 05:23:05;;;;;;;28.92;17.85;;;;;;;8.47;97.73;101308.78;5055086;28;20213;-54
2022/03/13 05:25:31;;;;;;;27.48;16.50;;;;;;;8.45;97.53;101302.72;5052398;28;20403;-56
2022/03/13 05:27:57;;;;;;;31.13;17.20;;;;;;;8.42;97.04;101310.97;5047517;28;20262;-54
2022/03/13 05:30:23;;;;;;;30.77;17.38;;;;;;;8.39;97.31;101303.25;5050590;28;20065;-56
2022/03/13 05:32:48;;;;;;;28.55;16.63;;;;;;;8.36;97.10;101307.03;5018947;28;20423;-55
2022/03/13 05:35:14;;;;;;;34.42;17.70;;;;;;;8.38;99.37;101310.41;5035233;28;20108;-56
2022/03/13 05:37:40;;;;;;;30.10;16.35;;;;;;;8.36;98.06;101308.84;5040326;28;20144;-54
2022/03/13 05:40:06;;;;;;;30.15;16.63;;;;;;;8.32;95.64;101302.97;5021043;28;20044;-54
2022/03/13 05:42:31;;;;;;;28.45;16.27;;;;;;;8.34;97.60;101308.97;5041973;28;20475;-55
2022/03/13 05:44:57;;;;;;;29.67;17.48;;;;;;;8.31;96.27;101300.44;5054039;28;20031;-54
2022/03/13 05:47:22;;;;;;;30.63;16.35;;;;;;;8.34;95.07;101310.81;5055107;28;20028;-56
2022/03/13 05:49:48;;;;;;;31.90;16.95;;;;;;;8.35;96.80;101317.78;5054531;28;20870;-55
2022/03/13 05:52:15;;;;;;;31.90;17.13;;;;;;;8.34;95.40;101310.81;5054808;28;20048;-55
2022/03/13 05:54:41;;;;;;;26.75;16.23;;;;;;;8.35;95.49;101317.78;5052693;28;20285;-55
2022/03/13 05:57:09;;;;;;;29.67;17.00;;;;;;;8.33;94.64;101320.63;5055232;28;20320;-55
2022/03/13 05:59:35;;;;;;;35.83;17.50;;;;;;;8.32;94.62;101318.91;5054121;28;20055;-54
2022/03/13 06:02:02;;;;;;;30.20;15.93;;;;;;;8.32;94.03;101328.72;5033554;28;20448;-55
2022/03/13 06:04:28;;;;;;;31.33;17.08;;;;;;;8.34;96.34;101330.28;5033848;28;20320;-55
2022/03/13 06:06:53;;;;;;;29.40;16.40;;;;;;;8.31;94.82;101325.22;5054314;28;20398;-55
2022/03/13 06:09:18;;;;;;;29.73;16.85;;;;;;;8.30;92.71;101314.69;5053110;28;20482;-55
2022/03/13 06:11:43;;;;;;;26.15;16.27;;;;;;;8.34;94.09;101332.09;5045138;28;20033;-53
2022/03/13 06:14:09;;;;;;;29.88;16.35;;;;;;;8.33;93.85;101325.06;5045997;28;20384;-54
2022/03/13 06:16:35;;;;;;;28.95;15.95;;;;;;;8.32;93.54;101329.56;5044979;28;20029;-55
2022/03/13 06:19:00;;;;;;;35.97;16.98;;;;;;;8.32;93.50;101321.59;5014660;28;20274;-54
2022/03/13 06:21:25;;;;;;;26.42;15.57;;;;;;;8.33;93.49;101339.25;5040906;28;20081;-55
2022/03/13 06:23:50;;;;;;;31.35;16.02;;;;;;;8.32;93.22;101337.56;5053628;28;20040;-55
2022/03/13 06:26:16;;;;;;;24.98;14.75;;;;;;;8.30;93.22;101326.22;5052095;28;20418;-54
2022/03/13 06:28:41;;;;;;;27.85;16.02;;;;;;;8.29;92.82;101329.00;5052855;28;20024;-54
2022/03/13 06:31:06;;;;;;;30.35;16.15;;;;;;;8.31;94.17;101329.69;5054177;28;20459;-53
2022/03/13 06:33:31;;;;;;;27.08;15.80;;;;;;;8.32;94.71;101332.22;5053705;28;20112;-54
2022/03/13 06:35:57;;;;;;;28.63;16.17;;;;;;;8.36;94.59;101340.78;5039286;28;20456;-54
2022/03/13 06:38:22;;;;;;;24.42;15.27;;;;;;;8.34;92.12;101330.28;5046839;28;20074;-53
2022/03/13 06:40:48;;;;;;;27.70;15.60;;;;;;;8.34;92.65;101329.44;5051694;28;20040;-53
2022/03/13 06:43:13;;;;;;;27.52;15.50;;;;;;;8.34;91.84;101329.44;5053448;28;20396;-54
2022/03/13 06:45:38;;;;;;;32.42;16.08;;;;;;;8.34;92.43;101330.28;5039511;28;20383;-55
2022/03/13 06:48:04;;;;;;;28.17;15.77;;;;;;;8.38;92.27;101326.38;5048850;28;20078;-54
2022/03/13 06:50:29;;;;;;;29.98;15.32;;;;;;;8.40;92.89;101331.53;5052644;28;20020;-55
2022/03/13 06:52:55;;;;;;;25.10;15.50;;;;;;;8.43;92.36;101330.47;5053713;28;20034;-53
2022/03/13 06:55:22;;;;;;;28.00;15.80;;;;;;;8.48;92.14;101322.94;5051316;28;20024;-55
2022/03/13 06:57:48;;;;;;;25.15;15.63;;;;;;;8.54;93.16;101327.72;5053381;28;20112;-55
2022/03/13 07:00:15;;;;;;;26.00;15.32;;;;;;;8.62;92.90;101332.34;5052977;28;20020;-54
2022/03/13 07:02:40;;;;;;;34.58;15.65;;;;;;;8.64;90.83;101327.72;5054141;28;20020;-54
2022/03/13 07:05:06;;;;;;;26.13;16.25;;;;;;;8.65;91.51;101324.91;5052845;28;20425;-55
2022/03/13 07:07:31;;;;;;;28.40;16.02;;;;;;;8.68;91.45;101335.31;5053921;28;20114;-54
2022/03/13 07:09:57;;;;;;;25.00;15.32;;;;;;;8.70;90.56;101333.34;5041047;28;20025;-54
2022/03/13 07:12:23;;;;;;;25.25;15.30;;;;;;;8.66;90.06;101326.63;5019112;28;20036;-54
2022/03/13 07:14:49;;;;;;;27.33;16.02;;;;;;;8.68;92.13;101331.81;5053248;28;20951;-54
2022/03/13 07:17:16;;;;;;;31.95;16.08;;;;;;;8.69;91.77;101314.84;5053657;28;20333;-53
2022/03/13 07:19:43;;;;;;;30.02;16.23;;;;;;;8.71;90.25;101324.38;5046081;28;20036;-54
2022/03/13 07:22:12;;;;;;;30.27;16.23;;;;;;;8.78;90.99;101327.34;5033057;28;20039;-55
2022/03/13 07:24:38;;;;;;;28.70;16.80;;;;;;;8.82;90.60;101328.75;5030619;28;20116;-54
2022/03/13 07:27:04;;;;;;;30.23;16.38;;;;;;;8.91;90.70;101327.06;5032340;28;20305;-55
2022/03/13 07:29:29;;;;;;;31.08;16.23;;;;;;;8.93;89.40;101328.63;5015871;28;20052;-55
2022/03/13 07:31:56;;;;;;;27.38;15.82;;;;;;;8.98;88.73;101330.88;5046116;28;20083;-52
2022/03/13 07:34:23;;;;;;;26.63;15.68;;;;;;;8.97;89.62;101337.19;5040750;28;20063;-53
2022/03/13 07:36:48;;;;;;;27.38;15.88;;;;;;;8.95;89.94;101333.81;5049674;28;20086;-53
2022/03/13 07:39:14;;;;;;;25.42;15.23;;;;;;;8.97;90.86;101326.53;5050470;28;20044;-54
2022/03/13 07:41:39;;;;;;;26.45;15.93;;;;;;;8.99;90.46;101321.06;5048676;28;20028;-53
2022/03/13 07:44:04;;;;;;;33.22;16.27;;;;;;;9.04;91.13;101324.16;5047598;28;20032;-53
2022/03/13 07:46:30;;;;;;;28.85;16.08;;;;;;;9.09;90.84;101324.56;5036651;28;20089;-52
2022/03/13 07:48:55;;;;;;;26.30;15.30;;;;;;;9.16;91.20;101320.34;5053341;28;20422;-54
2022/03/13 07:51:21;;;;;;;25.15;15.57;;;;;;;9.22;89.96;101322.47;5027658;28;20301;-54
2022/03/13 07:53:46;;;;;;;30.40;15.98;;;;;;;9.29;90.12;101320.09;5051526;28;20039;-54
2022/03/13 07:56:11;;;;;;;31.20;16.20;;;;;;;9.39;90.40;101312.94;5043472;28;20017;-52
2022/03/13 07:58:36;;;;;;;28.35;16.33;;;;;;;9.43;88.27;101314.31;5038976;28;20228;-53
2022/03/13 08:01:01;;;;;;;29.50;16.02;;;;;;;9.43;88.52;101313.47;5041456;28;20117;-56
2022/03/13 08:03:35;;;;;;;28.17;15.68;;;;;;;9.51;87.60;101313.63;5042017;28;20116;-52
2022/03/13 08:06:00;;;;;;;24.92;15.93;;;;;;;9.56;86.21;101321.19;5042753;28;20024;-54
2022/03/13 08:08:26;;;;;;;29.98;16.30;;;;;;;9.60;87.42;101326.06;5042907;28;20213;-55
2022/03/13 08:10:51;;;;;;;30.40;15.95;;;;;;;9.63;85.16;101324.97;5047342;28;20107;-55
2022/03/13 08:13:16;;;;;;;26.55;15.75;;;;;;;9.66;85.86;101319.34;5042190;28;20100;-53
2022/03/13 08:15:41;;;;;;;28.40;15.85;;;;;;;9.70;86.50;101324.22;5038137;28;20048;-52
2022/03/13 08:18:09;;;;;;;29.88;16.23;;;;;;;9.82;86.46;101326.75;5032840;28;20518;-54
2022/03/13 08:20:35;;;;;;;27.60;16.45;;;;;;;9.88;84.97;101324.34;5035251;28;20200;-55
2022/03/13 08:23:00;;;;;;;30.00;16.90;;;;;;;9.95;84.30;101323.78;5051956;28;20032;-54
2022/03/13 08:25:26;;;;;;;27.55;15.85;;;;;;;9.99;84.62;101307.31;5039239;28;20059;-55
2022/03/13 08:27:51;;;;;;;31.27;16.23;;;;;;;10.04;81.77;101318.38;5038039;28;20029;-54
2022/03/13 08:30:17;;;;;;;30.95;16.80;;;;;;;10.10;83.60;101314.31;5033021;28;20029;-55
2022/03/13 08:32:42;;;;;;;32.47;16.35;;;;;;;10.16;82.62;101315.53;5052567;28;20123;-52
2022/03/13 08:35:08;;;;;;;32.38;15.70;;;;;;;10.19;80.06;101315.25;5050301;28;20036;-55
2022/03/13 08:37:35;;;;;;;38.78;16.48;;;;;;;10.22;79.44;101321.13;5049097;28;20049;-56
2022/03/13 08:40:03;;;;;;;30.15;16.25;;;;;;;10.26;79.24;101321.69;5046571;28;20251;-54
2022/03/13 08:42:28;;;;;;;29.27;15.38;;;;;;;10.32;79.60;101321.13;5053393;28;20082;-55
2022/03/13 08:44:53;;;;;;;29.17;15.60;;;;;;;10.43;78.63;101318.25;5037443;28;20028;-52
2022/03/13 08:47:19;;;;;;;27.15;15.18;;;;;;;10.57;78.21;101322.28;5049841;28;20025;-55
2022/03/13 08:49:44;;;;;;;27.95;16.20;;;;;;;10.65;77.95;101321.50;5048503;28;20535;-54
2022/03/13 08:52:09;;;;;;;29.08;16.15;;;;;;;10.67;75.04;101322.19;5042792;28;20119;-53
2022/03/13 08:54:35;;;;;;;28.48;16.13;;;;;;;10.71;75.04;101320.91;5034865;28;20046;-53
2022/03/13 08:57:02;;;;;;;28.13;15.70;;;;;;;10.76;76.00;101317.78;5052178;28;20031;-53
2022/03/13 08:59:30;;;;;;;36.47;17.65;;;;;;;10.83;75.57;101319.69;5036195;28;20020;-52
2022/03/13 09:01:55;;;;;;;27.38;15.80;;;;;;;10.92;75.10;101322.47;5038504;28;20495;-54
2022/03/13 09:04:20;;;;;;;29.70;16.25;;;;;;;11.02;75.18;101317.88;5048605;28;20040;-54
2022/03/13 09:06:46;;;;;;;33.60;16.67;;;;;;;11.08;74.42;101311.91;5043131;28;20062;-53
2022/03/13 09:09:12;;;;;;;35.28;15.23;;;;;;;11.11;72.68;101306.25;5041713;28;20118;-54
2022/03/13 09:11:38;;;;;;;26.48;15.55;;;;;;;11.14;71.66;101305.97;5037323;28;20035;-53
2022/03/13 09:14:04;;;;;;;25.48;16.13;;;;;;;11.24;71.50;101303.22;5044334;28;20029;-53
2022/03/13 09:16:32;;;;;;;28.20;16.65;;;;;;;11.37;70.47;101300.13;5042730;28;20424;-54
2022/03/13 09:18:57;;;;;;;25.50;15.77;;;;;;;11.58;68.88;101311.31;5042171;28;20428;-50
2022/03/13 09:21:23;;;;;;;26.90;15.38;;;;;;;11.76;69.68;101307.75;5029817;28;20044;-56
2022/03/13 09:23:49;;;;;;;26.65;16.33;;;;;;;11.97;67.51;101311.97;5048086;28;20139;-55
2022/03/13 09:26:14;;;;;;;29.02;16.00;;;;;;;12.15;67.82;101309.19;5040902;28;20020;-55
2022/03/13 09:28:39;;;;;;;26.20;16.15;;;;;;;12.34;65.57;101308.09;5046056;28;20072;-52
2022/03/13 09:31:06;;;;;;;25.13;17.02;;;;;;;12.41;63.50;101298.44;5046423;28;20109;-53
2022/03/13 09:33:31;;;;;;;32.33;17.05;;;;;;;12.48;64.56;101305.66;5044451;28;20473;-53
2022/03/13 09:35:56;;;;;;;28.60;16.10;;;;;;;12.58;65.16;101293.97;5053695;28;20098;-55
2022/03/13 09:38:22;;;;;;;27.00;16.15;;;;;;;12.67;64.80;101298.34;5038946;28;20087;-54
2022/03/13 09:40:48;;;;;;;28.88;16.08;;;;;;;12.80;62.59;101292.50;5035446;28;20074;-55
2022/03/13 09:43:19;;;;;;;32.05;16.65;;;;;;;12.93;65.65;101303.56;5035118;28;20107;-54
2022/03/13 09:45:44;;;;;;;;;;;;;;;12.93;64.04;101308.94;5040375;28;20066;-54
2022/03/13 09:48:09;;;;;;;27.43;16.47;;;;;;;12.96;64.37;101305.91;5045985;28;20428;-55
2022/03/13 09:50:35;;;;;;;28.38;16.52;;;;;;;12.94;62.23;101302.56;5050804;28;20047;-54
2022/03/13 09:53:00;;;;;;;28.02;16.38;;;;;;;13.07;64.12;101310.16;5042628;28;20048;-54
2022/03/13 09:55:27;;;;;;;26.55;16.38;;;;;;;13.23;62.32;101303.94;5043870;28;20032;-55
2022/03/13 09:57:52;;;;;;;31.33;16.25;;;;;;;13.44;62.25;101308.81;5053427;28;20016;-56
2022/03/13 10:00:21;;;;;;;33.70;16.60;;;;;;;13.66;62.48;101304.59;5045886;28;20082;-55
2022/03/13 10:02:47;;;;;;;29.73;16.58;;;;;;;13.86;62.18;101304.25;5038347;28;20313;-55
2022/03/13 10:05:18;;;;;;;26.08;16.65;;;;;;;13.90;60.16;101311.78;5048131;28;20028;-53
2022/03/13 10:07:51;;;;;;;;;;;;;;;13.89;59.58;101303.91;5040957;28;20093;-54
2022/03/13 10:10:16;;;;;;;23.90;14.95;;;;;;;14.01;60.86;101299.00;5040032;28;19955;-53
2022/03/13 10:12:42;;;;;;;27.25;14.50;;;;;;;14.21;59.93;101292.22;5052284;28;20061;-56
2022/03/13 10:15:08;;;;;;;23.88;15.43;;;;;;;14.32;58.16;101294.53;5036336;28;20462;-54
2022/03/13 10:17:36;;;;;;;22.77;14.13;;;;;;;14.41;58.69;101291.78;5035223;28;20443;-56
2022/03/13 10:20:19;;;;;;;23.92;14.15;;;;;;;14.52;58.54;101284.16;5042192;28;20111;-55
2022/03/13 10:23:00;;;;;;;23.40;14.02;;;;;;;14.56;57.46;101287.34;5035336;28;20115;-55
2022/03/13 10:25:39;;;;;;;21.45;14.05;;;;;;;14.61;57.29;101271.53;5044122;28;20012;-56
2022/03/13 10:28:19;;;;;;;21.13;14.00;;;;;;;14.74;59.83;101270.97;5045087;28;20280;-54
2022/03/13 10:30:47;;;;;;;24.55;14.30;;;;;;;14.80;55.78;101280.16;5040060;28;20021;-54
2022/03/13 10:33:13;;;;;;;20.63;13.75;;;;;;;14.73;55.85;101271.97;5040157;28;20033;-55
2022/03/13 10:35:39;;;;;;;25.10;14.32;;;;;;;14.99;54.99;101268.13;5043702;28;20075;-53
2022/03/13 10:38:18;;;;;;;21.08;13.93;;;;;;;15.06;56.41;101263.69;5038402;28;20225;-56
2022/03/13 10:40:45;;;;;;;26.05;13.70;;;;;;;15.26;56.75;101250.56;5035130;28;20027;-55
2022/03/13 10:43:12;;;;;;;22.65;13.43;;;;;;;15.55;54.64;101254.34;5034574;28;20025;-54
2022/03/13 10:45:43;;;;;;;21.80;14.20;;;;;;;15.66;53.29;101257.41;5033186;28;20025;-53
2022/03/13 10:48:15;;;;;;;21.60;13.85;;;;;;;15.71;53.66;101256.00;5044131;28;20028;-55
2022/03/13 10:50:44;;;;;;;19.80;12.70;;;;;;;15.79;53.14;101254.09;5048804;28;20040;-55
2022/03/13 10:53:12;;;;;;;22.52;13.45;;;;;;;15.90;52.71;101254.66;5046228;28;20031;-54
2022/03/13 10:55:37;;;;;;;25.35;13.48;;;;;;;15.93;50.91;101255.13;5042639;28;20028;-55
2022/03/13 10:58:02;;;;;;;22.00;13.70;;;;;;;15.96;52.48;101257.44;5039164;28;20437;-55
2022/03/13 11:00:28;;;;;;;22.02;13.35;;;;;;;16.00;51.99;101257.91;5029651;28;20017;-54
2022/03/13 11:03:10;;;;;;;21.38;13.52;;;;;;;16.08;52.31;101257.81;5032003;28;20028;-53
2022/03/13 11:05:36;;;;;;;21.17;13.25;;;;;;;16.08;50.69;101257.81;5044212;28;20024;-53
2022/03/13 11:08:02;;;;;;;18.98;12.70;;;;;;;16.07;51.07;101253.41;5052869;28;20043;-54
2022/03/13 11:10:27;;;;;;;17.23;11.40;;;;;;;15.97;52.90;101247.50;5052702;28;20073;-55
2022/03/13 11:12:55;;;;;;;18.52;12.50;;;;;;;15.85;51.55;101247.13;5039489;28;20447;-54